.
WxDataArchive / Data Records for 2010-11-06
2010-11-05 November 2010 2010-11-07

Data Records for Saturday, 06 November 2010

Time	Temp	Chill	HIndex	Humid	Dewpt	 Wind 	HiWind	WindDir	Rain 	Barom 
-----	----	-----	------	-----	-----	------	------	-------	-----	----- 
00:00	30.7	30.7	30.7	87	27.3	0	0	---	0.00	30.111 
00:05	30.6	30.6	30.6	87	27.2	0	0	---	0.00	30.111 
00:10	30.6	30.6	30.6	87	27.2	0	0	---	0.00	30.111 
00:15	30.4	30.4	30.4	88	27.3	0	1	338	0.00	30.111 
00:20	30.4	30.4	30.4	88	27.3	0	0	---	0.00	30.111 
00:25	30.3	30.3	30.3	88	27.2	0	0	---	0.00	30.111 
00:30	30.3	30.3	30.3	88	27.2	0	0	---	0.00	30.114 
00:35	30.1	30.1	30.1	88	27.0	0	1	338	0.00	30.114 
00:40	30.0	30.0	30.0	88	26.9	0	0	---	0.00	30.114 
00:45	29.8	29.8	29.8	88	26.7	0	0	---	0.00	30.119 
00:50	29.8	29.8	29.8	88	26.7	0	0	---	0.00	30.119 
00:55	29.8	29.8	29.8	88	26.7	0	0	---	0.00	30.119 
01:00	29.7	29.7	29.7	88	26.6	0	0	---	0.00	30.128 
01:05	29.7	29.7	29.7	88	26.6	0	0	---	0.00	30.128 
01:10	29.5	29.5	29.5	88	26.4	0	0	---	0.00	30.128 
01:15	29.5	29.5	29.5	89	26.7	0	0	---	0.00	30.129 
01:20	29.5	29.5	29.5	89	26.7	0	0	---	0.00	30.129 
01:25	29.5	29.5	29.5	89	26.7	0	0	---	0.00	30.129 
01:30	29.4	29.4	29.4	88	26.3	0	1	338	0.00	30.133 
01:35	29.4	29.4	29.4	88	26.3	0	0	---	0.00	30.133 
01:40	29.3	29.3	29.3	88	26.2	0	0	---	0.00	30.133 
01:45	29.3	29.3	29.3	88	26.2	0	0	---	0.00	30.137 
01:50	29.1	29.1	29.1	88	26.0	0	0	---	0.00	30.137 
01:55	29.0	29.0	29.0	88	25.9	0	0	---	0.00	30.137 
02:00	28.8	28.8	28.8	88	25.7	0	0	---	0.00	30.141 
02:05	28.8	28.8	28.8	88	25.7	0	1	338	0.00	30.141 
02:10	28.7	28.7	28.7	88	25.6	0	0	---	0.00	30.141 
02:15	28.7	28.7	28.7	88	25.6	0	0	---	0.00	30.143 
02:20	28.5	28.5	28.5	88	25.4	0	0	---	0.00	30.143 
02:25	28.4	28.4	28.4	88	25.3	0	0	---	0.00	30.143 
02:30	28.4	28.4	28.4	88	25.3	0	1	338	0.00	30.147 
02:35	28.2	28.2	28.2	88	25.1	0	0	---	0.00	30.147 
02:40	28.1	28.1	28.1	88	25.0	0	0	---	0.00	30.147 
02:45	28.1	28.1	28.1	88	25.0	0	0	---	0.00	30.147 
02:50	27.9	27.9	27.9	88	24.8	0	0	---	0.00	30.147 
02:55	27.8	27.8	27.8	88	24.7	0	0	---	0.00	30.147 
03:00	27.8	27.8	27.8	88	24.7	0	0	---	0.00	30.146 
03:05	27.6	27.6	27.6	88	24.5	0	0	---	0.00	30.146 
03:10	27.6	27.6	27.6	88	24.5	0	0	---	0.00	30.146 
03:15	27.5	27.5	27.5	88	24.4	0	0	---	0.00	30.152 
03:20	27.5	27.5	27.5	88	24.4	0	0	---	0.00	30.152 
03:25	27.5	27.5	27.5	88	24.4	0	0	---	0.00	30.152 
03:30	27.5	27.5	27.5	88	24.4	0	0	---	0.00	30.161 
03:35	27.5	27.5	27.5	88	24.4	0	0	---	0.00	30.161 
03:40	27.5	27.5	27.5	88	24.4	0	0	---	0.00	30.161 
03:45	27.5	27.5	27.5	88	24.4	0	0	---	0.00	30.164 
03:50	27.3	27.3	27.3	88	24.2	0	0	---	0.00	30.164 
03:55	27.3	27.3	27.3	88	24.2	0	0	---	0.00	30.164 
04:00	27.2	27.2	27.2	88	24.1	0	0	---	0.00	30.177 
04:05	27.2	27.2	27.2	88	24.1	0	0	---	0.00	30.177 
04:10	27.2	27.2	27.2	88	24.1	0	0	---	0.00	30.177 
04:15	27.2	27.2	27.2	88	24.1	0	0	---	0.00	30.179 
04:20	27.2	27.2	27.2	88	24.1	0	0	---	0.00	30.179 
04:25	27.0	27.0	27.0	88	23.9	0	0	---	0.00	30.179 
04:30	27.0	27.0	27.0	88	23.9	0	0	---	0.00	30.182 
04:35	26.9	26.9	26.9	88	23.8	0	0	---	0.00	30.182 
04:40	26.7	26.7	26.7	88	23.6	0	0	---	0.00	30.182 
04:45	26.7	26.7	26.7	88	23.6	0	0	---	0.00	30.183 
04:50	26.6	26.6	26.6	87	23.3	0	0	---	0.00	30.183 
04:55	26.4	26.4	26.4	87	23.1	0	0	---	0.00	30.183 
05:00	26.1	26.1	26.1	87	22.8	0	0	---	0.00	30.186 
05:05	26.0	26.0	26.0	87	22.7	0	0	---	0.00	30.186 
05:10	25.8	25.8	25.8	87	22.5	0	0	---	0.00	30.186 
05:15	25.6	25.6	25.6	87	22.3	0	0	---	0.00	30.193 
05:20	25.3	25.3	25.3	87	22.0	0	0	---	0.00	30.193 
05:25	25.0	25.0	25.0	87	21.7	0	0	---	0.00	30.193 
05:30	24.7	24.7	24.7	87	21.4	0	0	---	0.00	30.199 
05:35	24.7	24.7	24.7	88	21.7	0	0	---	0.00	30.199 
05:40	24.7	24.7	24.7	88	21.7	0	0	---	0.00	30.199 
05:45	24.7	24.7	24.7	88	21.7	0	0	---	0.00	30.211 
05:50	24.7	24.7	24.7	88	21.7	0	0	---	0.00	30.211 
05:55	24.7	24.7	24.7	88	21.7	0	0	---	0.00	30.211 
06:00	24.5	24.5	24.5	88	21.5	0	0	---	0.00	30.216 
06:05	24.5	24.5	24.5	88	21.5	0	0	---	0.00	30.216 
06:10	24.4	24.4	24.4	89	21.6	0	0	---	0.00	30.216 
06:15	24.4	24.4	24.4	89	21.6	0	0	---	0.00	30.227 
06:20	24.5	24.5	24.5	89	21.7	0	0	---	0.00	30.227 
06:25	24.5	24.5	24.5	89	21.7	0	0	---	0.00	30.227 
06:30	24.5	24.5	24.5	89	21.7	0	0	---	0.00	30.235 
06:35	24.5	24.5	24.5	89	21.7	0	0	---	0.00	30.235 
06:40	24.5	24.5	24.5	89	21.7	0	0	---	0.00	30.235 
06:45	24.5	24.5	24.5	89	21.7	0	0	---	0.00	30.244 
06:50	24.5	24.5	24.5	89	21.7	0	0	---	0.00	30.244 
06:55	24.5	24.5	24.5	89	21.7	0	0	---	0.00	30.244 
07:00	24.5	24.5	24.5	89	21.7	0	0	---	0.00	30.249 
07:05	24.4	24.4	24.4	89	21.6	0	0	---	0.00	30.249 
07:10	24.4	24.4	24.4	88	21.4	0	0	---	0.00	30.249 
07:15	24.2	24.2	24.2	88	21.2	0	0	---	0.00	30.258 
07:20	24.1	24.1	24.1	88	21.1	0	0	---	0.00	30.258 
07:25	23.9	23.9	23.9	88	20.9	0	0	---	0.00	30.258 
07:30	23.9	23.9	23.9	88	20.9	0	0	---	0.00	30.266 
07:35	23.9	23.9	23.9	89	21.1	0	0	---	0.00	30.266 
07:40	23.8	23.8	23.8	89	21.0	0	0	---	0.00	30.266 
07:45	23.8	23.8	23.8	89	21.0	0	0	---	0.00	30.275 
07:50	23.6	23.6	23.6	88	20.6	0	0	---	0.00	30.275 
07:55	23.5	23.5	23.5	88	20.5	0	0	---	0.00	30.275 
08:00	23.3	23.3	23.3	88	20.3	0	0	---	0.00	30.282 
08:05	23.2	23.2	23.2	88	20.2	0	0	---	0.00	30.282 
08:10	23.2	23.2	23.2	89	20.4	0	0	---	0.00	30.282 
08:15	23.5	23.5	23.5	89	20.7	0	0	---	0.00	30.289 
08:20	23.6	23.6	23.6	89	20.8	0	0	---	0.00	30.289 
08:25	23.6	23.6	23.6	89	20.8	0	0	---	0.00	30.289 
08:30	23.6	23.6	23.6	89	20.8	0	0	---	0.00	30.297 
08:35	23.6	23.6	23.6	89	20.8	0	0	---	0.00	30.297 
08:40	23.8	23.8	23.8	89	21.0	0	0	---	0.00	30.297 
08:45	23.9	23.9	23.9	89	21.1	0	0	---	0.00	30.310 
08:50	24.1	24.1	24.1	89	21.3	0	0	---	0.00	30.310 
08:55	24.2	24.2	24.2	89	21.4	0	0	---	0.00	30.310 
09:00	24.5	24.5	24.5	89	21.7	0	0	---	0.00	30.315 
09:05	25.0	25.0	25.0	89	22.2	0	0	---	0.00	30.315 
09:10	25.3	25.3	25.3	89	22.5	0	1	338	0.00	30.315 
09:15	25.7	25.7	25.7	88	22.6	0	1	338	0.00	30.326 
09:20	26.1	26.1	26.1	88	23.0	0	0	---	0.00	30.326 
09:25	26.6	26.6	26.6	87	23.3	0	1	338	0.00	30.326 
09:30	27.0	27.0	27.0	86	23.4	0	1	338	0.00	30.330 
09:35	27.3	27.3	27.3	85	23.4	0	1	315	0.00	30.330 
09:40	27.8	27.8	27.8	83	23.3	0	1	292	0.00	30.330 
09:45	28.2	28.2	28.2	82	23.4	0	1	292	0.00	30.337 
09:50	28.7	28.7	28.7	81	23.6	0	1	292	0.00	30.337 
09:55	29.0	29.0	29.0	79	23.3	0	1	292	0.00	30.337 
10:00	29.4	29.4	29.4	77	23.1	0	2	292	0.00	30.342 
10:05	29.8	29.8	29.8	76	23.2	0	1	292	0.00	30.342 
10:10	30.3	30.3	30.3	75	23.3	0	2	292	0.00	30.342 
10:15	30.6	30.6	30.6	73	23.0	0	2	292	0.00	30.346 
10:20	31.0	31.0	31.0	71	22.7	0	2	292	0.00	30.346 
10:25	31.3	31.3	31.3	69	22.3	0	2	0	0.00	30.346 
10:30	31.8	31.8	31.8	68	22.5	0	2	0	0.00	30.354 
10:35	32.1	32.1	32.1	68	22.7	0	2	0	0.01	30.354 
10:40	32.4	32.4	32.4	68	23.0	0	2	0	0.00	30.354 
10:45	32.5	32.5	32.5	65	22.1	1	3	0	0.00	30.357 
10:50	32.7	32.7	32.7	65	22.3	0	2	270	0.00	30.357 
10:55	33.1	33.1	33.1	65	22.6	0	1	270	0.00	30.357 
11:00	33.4	33.4	33.4	63	22.2	1	3	270	0.01	30.366 
11:05	33.8	33.8	33.8	63	22.6	0	3	270	0.00	30.366 
11:10	34.0	34.0	34.0	60	21.6	1	3	338	0.00	30.366 
11:15	34.1	34.1	34.1	59	21.3	0	2	338	0.00	30.369 
11:20	34.3	34.3	34.3	58	21.1	0	2	338	0.00	30.369 
11:25	34.3	34.3	34.3	55	19.8	0	2	338	0.00	30.369 
11:30	34.4	34.4	34.4	55	19.9	0	3	0	0.00	30.369 
11:35	34.9	34.9	34.9	55	20.4	0	3	0	0.00	30.369 
11:40	35.0	35.0	35.0	55	20.5	1	4	0	0.00	30.369 
11:45	35.3	35.3	35.3	55	20.8	0	4	270	0.00	30.371 
11:50	35.3	35.3	35.3	55	20.8	1	6	90	0.00	30.371 
11:55	35.6	35.6	35.6	55	21.0	1	3	315	0.00	30.371 
12:00	35.6	35.6	35.6	54	20.6	1	4	338	0.00	30.378 
12:05	35.8	35.8	35.8	53	20.4	1	3	315	0.00	30.378 
12:10	35.9	35.9	35.9	54	20.9	0	2	315	0.00	30.378 
12:15	36.2	36.2	36.2	54	21.2	0	2	90	0.00	30.381 
12:20	36.3	36.3	36.3	53	20.8	0	2	270	0.00	30.381 
12:25	36.8	36.8	36.8	52	20.8	1	2	270	0.00	30.381 
12:30	36.9	36.9	36.9	52	20.9	0	2	248	0.00	30.375 
12:35	36.9	36.9	36.9	50	20.0	1	4	248	0.00	30.375 
12:40	37.0	37.0	37.0	49	19.6	1	4	0	0.00	30.375 
12:45	37.2	37.2	37.2	50	20.3	0	2	0	0.00	30.372 
12:50	37.5	37.5	37.5	48	19.6	1	2	0	0.00	30.372 
12:55	37.6	37.6	37.6	48	19.7	1	3	292	0.00	30.372 
13:00	37.6	37.6	37.6	47	19.2	1	4	248	0.00	30.368 
13:05	37.8	37.8	37.8	49	20.4	1	2	248	0.00	30.368 
13:10	37.9	37.9	37.9	48	20.0	1	4	45	0.00	30.368 
13:15	38.2	38.2	38.2	48	20.3	0	3	315	0.00	30.368 
13:20	38.2	38.2	38.2	47	19.8	1	4	315	0.00	30.368 
13:25	38.6	38.6	38.6	46	19.6	1	3	338	0.00	30.368 
13:30	38.9	38.9	38.9	46	19.9	1	4	315	0.00	30.364 
13:35	38.9	38.9	38.9	46	19.9	1	3	338	0.00	30.364 
13:40	38.9	38.9	38.9	45	19.4	1	4	292	0.00	30.364 
13:45	38.9	38.9	38.9	45	19.4	2	6	315	0.00	30.356 
13:50	39.2	39.2	39.2	44	19.1	1	4	0	0.00	30.356 
13:55	39.3	39.3	39.3	44	19.2	1	3	338	0.00	30.356 
14:00	39.2	39.2	39.2	44	19.1	2	7	270	0.00	30.352 
14:05	39.3	39.3	39.3	44	19.2	1	7	292	0.00	30.352 
14:10	39.6	39.6	39.6	45	20.0	1	3	315	0.00	30.352 
14:15	39.9	39.9	39.9	45	20.3	1	4	0	0.00	30.351 
14:20	40.1	40.1	40.1	43	19.4	1	4	0	0.00	30.351 
14:25	39.9	39.9	39.9	42	18.7	2	4	0	0.00	30.351 
14:30	39.8	39.8	39.8	42	18.6	2	6	292	0.00	30.351 
14:35	39.9	39.9	39.9	43	19.2	1	4	315	0.00	30.351 
14:40	40.1	40.1	40.1	41	18.3	2	6	315	0.00	30.351 
14:45	40.2	40.2	40.2	41	18.4	1	4	338	0.00	30.354 
14:50	40.5	40.5	40.5	42	19.2	1	3	338	0.00	30.354 
14:55	40.5	40.5	40.5	42	19.2	0	2	315	0.00	30.354 
15:00	41.1	41.1	41.1	43	20.3	0	4	270	0.00	30.353 
15:05	40.9	40.9	40.9	40	18.5	2	6	270	0.00	30.353 
15:10	40.9	40.9	40.9	41	19.0	1	3	248	0.00	30.353 
15:15	40.9	40.9	40.9	41	19.0	1	3	338	0.00	30.356 
15:20	40.8	40.8	40.8	40	18.4	1	3	270	0.00	30.356 
15:25	40.8	40.8	40.8	40	18.4	2	4	315	0.00	30.356 
15:30	41.1	41.1	41.1	41	19.2	0	2	270	0.00	30.354 
15:35	41.1	41.1	41.1	39	18.1	0	3	270	0.00	30.354 
15:40	41.2	41.2	41.2	41	19.3	1	3	270	0.00	30.354 
15:45	41.5	41.5	41.5	39	18.4	1	4	270	0.00	30.359 
15:50	41.6	41.6	41.6	39	18.5	1	2	0	0.00	30.359 
15:55	41.5	41.5	41.5	39	18.4	1	3	315	0.00	30.359 
16:00	41.6	41.6	41.6	39	18.5	0	2	338	0.00	30.363 
16:05	41.6	41.6	41.6	39	18.5	0	2	338	0.00	30.363 
16:10	42.1	42.1	42.1	39	18.9	0	2	225	0.00	30.363 
16:15	42.5	42.5	42.5	37	18.1	1	3	225	0.00	30.360 
16:20	42.2	42.2	42.2	38	18.4	0	2	315	0.00	30.360 
16:25	42.1	42.1	42.1	38	18.3	0	1	0	0.00	30.360 
16:30	42.1	42.1	42.1	38	18.3	1	3	0	0.00	30.366 
16:35	41.9	41.9	41.9	37	17.5	2	4	292	0.00	30.366 
16:40	41.6	41.6	41.6	39	18.5	1	6	248	0.00	30.366 
16:45	41.5	41.5	41.5	38	17.8	0	2	248	0.00	30.364 
16:50	41.2	41.2	41.2	39	18.1	1	3	0	0.00	30.364 
16:55	41.2	41.2	41.2	39	18.1	1	3	338	0.00	30.364 
17:00	41.2	41.2	41.2	40	18.7	1	4	338	0.00	30.364 
17:05	41.2	41.2	41.2	41	19.3	1	2	270	0.00	30.364 
17:10	41.1	41.1	41.1	42	19.8	1	3	270	0.00	30.364 
17:15	40.9	40.9	40.9	41	19.0	1	4	270	0.00	30.367 
17:20	40.8	40.8	40.8	42	19.5	1	2	270	0.00	30.367 
17:25	40.6	40.6	40.6	43	19.9	1	3	338	0.00	30.367 
17:30	40.8	40.8	40.8	43	20.1	1	4	270	0.00	30.368 
17:35	40.8	40.8	40.8	42	19.5	2	4	315	0.00	30.368 
17:40	40.8	40.8	40.8	41	18.9	1	3	315	0.00	30.368 
17:45	40.6	40.6	40.6	41	18.8	1	4	270	0.00	30.372 
17:50	40.5	40.5	40.5	41	18.7	1	4	338	0.00	30.372 
17:55	40.2	40.2	40.2	42	19.0	1	3	338	0.00	30.372 
18:00	39.9	39.9	39.9	42	18.7	0	2	315	0.00	30.381 
18:05	39.6	39.6	39.6	43	19.0	0	2	315	0.00	30.381 
18:10	39.5	39.5	39.5	44	19.4	0	1	315	0.00	30.381 
18:15	39.2	39.2	39.2	45	19.7	0	1	315	0.00	30.386 
18:20	38.9	38.9	38.9	46	19.9	0	2	315	0.00	30.386 
18:25	38.6	38.6	38.6	47	20.1	0	2	315	0.00	30.386 
18:30	38.5	38.5	38.5	47	20.0	0	1	315	0.00	30.387 
18:35	38.3	38.3	38.3	48	20.4	0	1	315	0.00	30.387 
18:40	38.0	38.0	38.0	48	20.1	0	1	315	0.00	30.387 
18:45	37.9	37.9	37.9	49	20.5	0	1	315	0.00	30.389 
18:50	37.8	37.8	37.8	49	20.4	0	1	315	0.00	30.389 
18:55	37.3	37.3	37.3	50	20.4	0	0	---	0.00	30.389 
19:00	37.0	37.0	37.0	50	20.1	0	0	---	0.00	30.388 
19:05	36.6	36.6	36.6	51	20.2	0	0	---	0.00	30.388 
19:10	36.3	36.3	36.3	52	20.4	0	0	---	0.00	30.388 
19:15	35.9	35.9	35.9	52	20.0	0	0	---	0.01	30.394 
19:20	35.3	35.3	35.3	54	20.3	0	0	---	0.00	30.394 
19:25	34.9	34.9	34.9	54	20.0	0	0	---	0.00	30.394 
19:30	34.6	34.6	34.6	56	20.5	0	0	---	0.00	30.406 
19:35	34.1	34.1	34.1	56	20.1	0	0	---	0.00	30.406 
19:40	33.8	33.8	33.8	57	20.2	0	0	---	0.00	30.406 
19:45	33.4	33.4	33.4	58	20.2	0	0	---	0.00	30.409 
19:50	33.1	33.1	33.1	58	20.0	0	0	---	0.00	30.409 
19:55	32.8	32.8	32.8	58	19.7	0	0	---	0.00	30.409 
20:00	32.4	32.4	32.4	59	19.7	0	0	---	0.00	30.410 
20:05	32.1	32.1	32.1	60	19.8	0	0	---	0.00	30.410 
20:10	31.8	31.8	31.8	61	19.9	0	0	---	0.00	30.410 
20:15	31.5	31.5	31.5	62	20.0	0	0	---	0.00	30.410 
20:20	31.2	31.2	31.2	62	19.7	0	0	---	0.00	30.410 
20:25	30.9	30.9	30.9	62	19.4	0	0	---	0.00	30.410 
20:30	30.6	30.6	30.6	63	19.5	0	0	---	0.00	30.410 
20:35	30.3	30.3	30.3	65	20.0	0	0	---	0.00	30.410 
20:40	30.0	30.0	30.0	65	19.7	0	0	---	0.00	30.410 
20:45	29.8	29.8	29.8	66	19.8	0	0	---	0.00	30.417 
20:50	29.7	29.7	29.7	66	19.8	0	0	---	0.00	30.417 
20:55	29.4	29.4	29.4	67	19.8	0	0	---	0.00	30.417 
21:00	29.3	29.3	29.3	67	19.7	0	0	---	0.00	30.412 
21:05	29.1	29.1	29.1	69	20.2	0	0	---	0.00	30.412 
21:10	29.1	29.1	29.1	69	20.2	0	0	---	0.00	30.412 
21:15	29.1	29.1	29.1	69	20.2	0	0	---	0.00	30.408 
21:20	29.0	29.0	29.0	70	20.5	0	0	---	0.00	30.408 
21:25	29.0	29.0	29.0	70	20.5	0	0	---	0.00	30.408 
21:30	29.0	29.0	29.0	70	20.5	0	0	---	0.00	30.407 
21:35	28.8	28.8	28.8	70	20.3	0	0	---	0.00	30.407 
21:40	28.7	28.7	28.7	71	20.5	0	0	---	0.00	30.407 
21:45	28.5	28.5	28.5	72	20.6	0	0	---	0.00	30.408 
21:50	28.5	28.5	28.5	72	20.6	0	0	---	0.00	30.408 
21:55	28.4	28.4	28.4	73	20.9	0	0	---	0.00	30.408 
22:00	28.2	28.2	28.2	73	20.7	0	0	---	0.00	30.410 
22:05	28.1	28.1	28.1	73	20.6	0	0	---	0.00	30.410 
22:10	28.1	28.1	28.1	74	20.9	0	0	---	0.00	30.410 
22:15	28.1	28.1	28.1	74	20.9	0	0	---	0.00	30.417 
22:20	27.9	27.9	27.9	74	20.7	0	0	---	0.00	30.417 
22:25	27.8	27.8	27.8	74	20.6	0	0	---	0.00	30.417 
22:30	27.6	27.6	27.6	74	20.4	0	0	---	0.00	30.415 
22:35	27.6	27.6	27.6	75	20.7	0	0	---	0.00	30.415 
22:40	27.5	27.5	27.5	75	20.6	0	0	---	0.00	30.415 
22:45	27.2	27.2	27.2	75	20.3	0	0	---	0.00	30.418 
22:50	27.2	27.2	27.2	76	20.7	0	0	---	0.00	30.418 
22:55	27.0	27.0	27.0	76	20.5	0	0	---	0.00	30.418 
23:00	27.0	27.0	27.0	76	20.5	0	0	---	0.00	30.418 
23:05	26.9	26.9	26.9	77	20.7	0	0	---	0.00	30.418 
23:10	26.9	26.9	26.9	77	20.7	0	0	---	0.00	30.418 
23:15	26.9	26.9	26.9	77	20.7	0	0	---	0.00	30.406 
23:20	26.7	26.7	26.7	77	20.5	0	0	---	0.00	30.406 
23:25	26.7	26.7	26.7	77	20.5	0	0	---	0.00	30.406 
23:30	26.7	26.7	26.7	77	20.5	0	0	---	0.00	30.405 
23:35	26.7	26.7	26.7	77	20.5	0	0	---	0.00	30.405 
23:40	26.7	26.7	26.7	77	20.5	0	0	---	0.00	30.405 
23:45	26.9	26.9	26.9	77	20.7	0	0	---	0.00	30.406 
23:50	26.9	26.9	26.9	77	20.7	0	0	---	0.00	30.406 
23:55	27.0	27.0	27.0	77	20.8	0	0	---	0.00	30.406 

CoCoRaHS
IN-AL-39
A2 Web Hosting
Creative Commons License
GoDaddy
search engine by freefind advanced

loaded 2018-11-22 06:13:02 • last modified 2010-11-18 10:43:29
Privacy PolicyDisclaimer
• wx.awcolley.com is powered by PmWiki v.2002016 •
• all content (unless otherwise noted) © 2018 A W Colley